• Join FlightAware (Why Join?)
  • Login
  • US Flag 
02:55PM EDT


 

Airport Tracker/Info


-or-


 

Live Flight TrackerFlight Track Log ✈ UAL109 ✈ 03-Jul-2013 ✈ EGPH / EDI - KEWR

Flight Track Log - Related Links

Times and Time Zones

All times are in EDT time to prevent confusion due to time zone crossing. See the UAL109 flight status page for this flight to view local times or setup timezone preferences in your user account.

Time Position Orientation Groundspeed Altitude Reporting Facility
EDT Latitude Longitude Course Direction KTS MPH feet Rate Location/Type
02:29PM 55.9760 -3.5841 282° West  Level Estimated
02:30PM 56.0017 -3.7959 282° West  Level Estimated
02:31PM 56.0269 -4.0080 282° West  Level Estimated
02:32PM 56.0519 -4.2204 282° West  Level Estimated
02:33PM 56.0764 -4.4331 282° West  Level Estimated
02:34PM 56.1006 -4.6460 282° West  Level Estimated
02:35PM 56.1244 -4.8592 281° West  Level Estimated
02:36PM 56.1479 -5.0727 281° West  Level Estimated
02:37PM 56.1710 -5.2864 281° West  Level Estimated
02:38PM 56.1937 -5.5004 281° West  Level Estimated
02:39PM 56.2160 -5.7146 281° West  Level Estimated
02:40PM 56.2380 -5.9291 281° West  Level Estimated
02:41PM 56.2596 -6.1438 280° West  Level Estimated
02:42PM 56.2808 -6.3588 280° West  Level Estimated
02:43PM 56.3017 -6.5740 280° West  Level Estimated
02:44PM 56.3222 -6.7894 280° West  Level Estimated
02:45PM 56.3423 -7.0051 280° West  Level Estimated
02:46PM 56.3620 -7.2210 279° West  Level Estimated
02:47PM 56.3814 -7.4371 279° West  Level Estimated
02:48PM 56.4004 -7.6534 279° West  Level Estimated
02:49PM 56.4190 -7.8699 279° West  Level Estimated
02:50PM 56.4372 -8.0867 279° West  Level Estimated
02:51PM 56.4551 -8.3036 279° West  Level Estimated
02:52PM 56.4725 -8.5208 278° West  Level Estimated
02:53PM 56.4896 -8.7381 278° West  Level Estimated
02:54PM 56.5063 -8.9557 278° West  Level Estimated
02:55PM 56.5227 -9.1734 278° West  Level Estimated
02:56PM 56.5386 -9.3913 278° West  Level Estimated
02:57PM 56.5542 -9.6094 277° West  Level Estimated
02:58PM 56.5694 -9.8277 277° West  Level Estimated
02:59PM 56.5842 -10.0462 277° West  Level Estimated
03:00PM 56.5986 -10.2648 277° West  Level Estimated
03:01PM 56.6126 -10.4836 277° West  Level Estimated
03:02PM 56.6263 -10.7025 277° West  Level Estimated
03:03PM 56.6396 -10.9216 276° West  Level Estimated
03:04PM 56.6525 -11.1409 276° West  Level Estimated
03:05PM 56.6650 -11.3603 276° West  Level Estimated
03:06PM 56.6771 -11.5798 276° West  Level Estimated
03:07PM 56.6888 -11.7995 276° West  Level Estimated
03:08PM 56.7001 -12.0194 275° West  Level Estimated
03:09PM 56.7111 -12.2393 275° West  Level Estimated
03:10PM 56.7217 -12.4594 275° West  Level Estimated
03:11PM 56.7318 -12.6796 275° West  Level Estimated
03:12PM 56.7416 -12.8999 275° West  Level Estimated
03:13PM 56.7510 -13.1203 275° West  Level Estimated
03:14PM 56.7600 -13.3409 274° West  Level Estimated
03:15PM 56.7687 -13.5615 274° West  Level Estimated
03:16PM 56.7769 -13.7823 274° West  Level Estimated
03:17PM 56.7847 -14.0031 274° West  Level Estimated
03:18PM 56.7922 -14.2240 274° West  Level Estimated
03:19PM 56.7992 -14.4450 273° West  Level Estimated
03:20PM 56.8059 -14.6661 273° West  Level Estimated
03:21PM 56.8122 -14.8873 273° West  Level Estimated
03:22PM 56.8181 -15.1085 273° West  Level Estimated
03:23PM 56.8236 -15.3298 273° West  Level Estimated
03:24PM 56.8287 -15.5512 273° West  Level Estimated
03:25PM 56.8334 -15.7726 272° West  Level Estimated
03:26PM 56.8377 -15.9941 272° West  Level Estimated
03:27PM 56.8416 -16.2156 272° West  Level Estimated
03:28PM 56.8452 -16.4372 272° West  Level Estimated
03:29PM 56.8483 -16.6588 272° West  Level Estimated
03:30PM 56.8511 -16.8805 271° West  Level Estimated
03:31PM 56.8535 -17.1021 271° West  Level Estimated
03:32PM 56.8554 -17.3238 271° West  Level Estimated
03:33PM 56.8570 -17.5456 271° West  Level Estimated
03:34PM 56.8582 -17.7673 271° West  Level Estimated
03:35PM 56.8590 -17.9890 270° West  Level Estimated
03:36PM 56.8594 -18.2108 270° West  Level Estimated
03:37PM 56.8594 -18.4326 270° West  Level Estimated
03:38PM 56.8590 -18.6543 270° West  Level Estimated
03:39PM 56.8582 -18.8761 270° West  Level Estimated
03:40PM 56.8570 -19.0978 270° West  Level Estimated
03:41PM 56.8555 -19.3195 269° West  Level Estimated
03:42PM 56.8535 -19.5413 269° West  Level Estimated
03:43PM 56.8512 -19.7629 269° West  Level Estimated
03:44PM 56.8484 -19.9846 269° West  Level Estimated
03:45PM 56.8453 -20.2062 269° West  Level Estimated
03:46PM 56.8417 -20.4278 268° West  Level Estimated
03:47PM 56.8378 -20.6493 268° West  Level Estimated
03:48PM 56.8335 -20.8708 268° West  Level Estimated
03:49PM 56.8288 -21.0922 268° West  Level Estimated
03:50PM 56.8237 -21.3136 268° West  Level Estimated
03:51PM 56.8182 -21.5349 267° West  Level Estimated
03:52PM 56.8123 -21.7561 267° West  Level Estimated
03:53PM 56.8060 -21.9773 267° West  Level Estimated
03:54PM 56.7994 -22.1984 267° West  Level Estimated
03:55PM 56.7923 -22.4194 267° West  Level Estimated
03:56PM 56.7849 -22.6403 267° West  Level Estimated
03:57PM 56.7770 -22.8612 266° West  Level Estimated
03:58PM 56.7688 -23.0819 266° West  Level Estimated
03:59PM 56.7602 -23.3025 266° West  Level Estimated
04:00PM 56.7512 -23.5231 266° West  Level Estimated
04:01PM 56.7418 -23.7435 266° West  Level Estimated
04:02PM 56.7320 -23.9638 265° West  Level Estimated
04:03PM 56.7218 -24.1840 265° West  Level Estimated
04:04PM 56.7113 -24.4041 265° West  Level Estimated
04:05PM 56.7003 -24.6241 265° West  Level Estimated
04:06PM 56.6890 -24.8439 265° West  Level Estimated
04:07PM 56.6773 -25.0636 265° West  Level Estimated
04:08PM 56.6652 -25.2831 264° West  Level Estimated
04:09PM 56.6527 -25.5025 264° West  Level Estimated
04:10PM 56.6398 -25.7218 264° West  Level Estimated
04:11PM 56.6265 -25.9409 264° West  Level Estimated
04:12PM 56.6129 -26.1598 264° West  Level Estimated
04:13PM 56.5989 -26.3786 263° West  Level Estimated
04:14PM 56.5844 -26.5973 263° West  Level Estimated
04:15PM 56.5696 -26.8157 263° West  Level Estimated
04:16PM 56.5545 -27.0340 263° West  Level Estimated
04:17PM 56.5389 -27.2521 263° West  Level Estimated
04:18PM 56.5229 -27.4701 263° West  Level Estimated
04:19PM 56.5066 -27.6878 262° West  Level Estimated
04:20PM 56.4899 -27.9053 262° West  Level Estimated
04:21PM 56.4728 -28.1227 262° West  Level Estimated
04:22PM 56.4553 -28.3399 262° West  Level Estimated
04:23PM 56.4375 -28.5568 262° West  Level Estimated
04:24PM 56.4193 -28.7736 261° West  Level Estimated
04:25PM 56.4007 -28.9901 261° West  Level Estimated
04:26PM 56.3817 -29.2064 261° West  Level Estimated
04:27PM 56.3624 -29.4226 261° West  Level Estimated
04:28PM 56.3426 -29.6384 261° West  Level Estimated
04:29PM 56.3225 -29.8541 261° West  Level Estimated
04:30PM 56.3020 -30.0695 260° West  Level Estimated
04:31PM 56.2812 -30.2847 260° West  Level Estimated
04:32PM 56.2600 -30.4997 260° West  Level Estimated
04:33PM 56.2384 -30.7144 260° West  Level Estimated
04:34PM 56.2164 -30.9289 260° West  Level Estimated
04:35PM 56.1941 -31.1431 259° West  Level Estimated
04:36PM 56.1713 -31.3571 259° West  Level Estimated
04:37PM 56.1483 -31.5708 259° West  Level Estimated
04:38PM 56.1248 -31.7843 259° West  Level Estimated
04:39PM 56.1010 -31.9975 259° West  Level Estimated
04:40PM 56.0768 -32.2105 259° West  Level Estimated
04:41PM 56.0523 -32.4231 258° West  Level Estimated
04:42PM 56.0274 -32.6355 258° West  Level Estimated
04:43PM 56.0021 -32.8476 258° West  Level Estimated
04:44PM 55.9765 -33.0595 258° West  Level Estimated
04:45PM 55.9505 -33.2710 258° West  Level Estimated
04:46PM 55.9241 -33.4823 258° West  Level Estimated
04:47PM 55.8974 -33.6933 257° West  Level Estimated
04:48PM 55.8703 -33.9040 257° West  Level Estimated
04:49PM 55.8428 -34.1144 257° West  Level Estimated
04:50PM 55.8150 -34.3245 257° West  Level Estimated
04:51PM 55.7869 -34.5343 257° West  Level Estimated
04:52PM 55.7583 -34.7438 256° West  Level Estimated
04:53PM 55.7295 -34.9530 256° West  Level Estimated
04:54PM 55.7002 -35.1618 256° West  Level Estimated
04:55PM 55.6707 -35.3704 256° West  Level Estimated
04:56PM 55.6407 -35.5786 256° West  Level Estimated
04:57PM 55.6104 -35.7866 256° West  Level Estimated
04:58PM 55.5798 -35.9942 255° West  Level Estimated
04:59PM 55.5488 -36.2014 255° West  Level Estimated
05:00PM 55.5175 -36.4084 255° West  Level Estimated
05:01PM 55.4858 -36.6150 255° West  Level Estimated
05:02PM 55.4537 -36.8213 255° West  Level Estimated
05:03PM 55.4214 -37.0272 255° West  Level Estimated
05:04PM 55.3886 -37.2328 254° West  Level Estimated
05:05PM 55.3556 -37.4381 254° West  Level Estimated
05:06PM 55.3222 -37.6430 254° West  Level Estimated
05:07PM 55.2884 -37.8475 254° West  Level Estimated
05:08PM 55.2543 -38.0518 254° West  Level Estimated
05:09PM 55.2198 -38.2556 254° West  Level Estimated
05:10PM 55.1851 -38.4592 253° West  Level Estimated
05:11PM 55.1500 -38.6623 253° West  Level Estimated
05:12PM 55.1145 -38.8651 253° West  Level Estimated
05:13PM 55.0787 -39.0676 253° West  Level Estimated
05:14PM 55.0426 -39.2696 253° West  Level Estimated
05:15PM 55.0061 -39.4713 253° West  Level Estimated
05:16PM 54.9693 -39.6727 252° West  Level Estimated
05:17PM 54.9322 -39.8736 252° West  Level Estimated
05:18PM 54.8948 -40.0742 252° West  Level Estimated
05:19PM 54.8570 -40.2745 252° West  Level Estimated
05:20PM 54.8189 -40.4743 252° West  Level Estimated
05:21PM 54.7804 -40.6738 252° West  Level Estimated
05:22PM 54.7417 -40.8729 251° West  Level Estimated
05:23PM 54.7026 -41.0716 251° West  Level Estimated
05:24PM 54.6632 -41.2699 251° West  Level Estimated
05:25PM 54.6234 -41.4678 251° West  Level Estimated
05:26PM 54.5834 -41.6654 251° West  Level Estimated
05:27PM 54.5430 -41.8626 251° West  Level Estimated
05:28PM 54.5023 -42.0593 250° West  Level Estimated
05:29PM 54.4613 -42.2557 250° West  Level Estimated
05:30PM 54.4199 -42.4517 250° West  Level Estimated
05:31PM 54.3783 -42.6473 250° West  Level Estimated
05:32PM 54.3363 -42.8424 250° West  Level Estimated
05:33PM 54.2940 -43.0372 250° West  Level Estimated
05:34PM 54.2514 -43.2316 250° West  Level Estimated
05:35PM 54.2085 -43.4256 249° West  Level Estimated
05:36PM 54.1653 -43.6192 249° West  Level Estimated
05:37PM 54.1218 -43.8124 249° West  Level Estimated
05:38PM 54.0779 -44.0051 249° West  Level Estimated
05:39PM 54.0338 -44.1975 249° West  Level Estimated
05:40PM 53.9893 -44.3894 249° West  Level Estimated
05:41PM 53.9446 -44.5810 248° West  Level Estimated
05:42PM 53.8995 -44.7721 248° West  Level Estimated
05:43PM 53.8541 -44.9628 248° West  Level Estimated
05:44PM 53.8085 -45.1531 248° West  Level Estimated
05:45PM 53.7625 -45.3430 248° West  Level Estimated
05:46PM 53.7162 -45.5325 248° West  Level Estimated
05:47PM 53.6697 -45.7215 247° West  Level Estimated
05:48PM 53.6228 -45.9101 247° West  Level Estimated
05:49PM 53.5757 -46.0984 247° West  Level Estimated
05:50PM 53.5282 -46.2861 247° West  Level Estimated
05:51PM 53.4805 -46.4735 247° West  Level Estimated
05:52PM 53.4324 -46.6604 247° West  Level Estimated
05:53PM 53.3841 -46.8470 247° West  Level Estimated
05:54PM 53.3355 -47.0331 246° West  Level Estimated
05:55PM 53.2866 -47.2187 246° West  Level Estimated
05:56PM 53.2374 -47.4040 246° West  Level Estimated
05:57PM 53.1879 -47.5888 246° West  Level Estimated
05:58PM 53.1381 -47.7732 246° West  Level Estimated
05:59PM 53.0881 -47.9572 246° West  Level Estimated
06:00PM 53.0377 -48.1407 246° West  Level Estimated
06:01PM 52.9871 -48.3238 245° Southwest  Level Estimated
06:02PM 52.9362 -48.5065 245° Southwest  Level Estimated
06:03PM 52.8850 -48.6887 245° Southwest  Level Estimated
06:04PM 52.8336 -48.8706 245° Southwest  Level Estimated
06:05PM 52.7818 -49.0519 245° Southwest  Level Estimated
06:06PM 52.7298 -49.2329 245° Southwest  Level Estimated
06:07PM 52.6775 -49.4134 245° Southwest  Level Estimated
06:08PM 52.6250 -49.5935 244° Southwest  Level Estimated
06:09PM 52.5722 -49.7732 244° Southwest  Level Estimated
06:10PM 52.5191 -49.9524 244° Southwest  Level Estimated
06:11PM 52.4657 -50.1312 244° Southwest  Level Estimated
06:12PM 52.4120 -50.3095 244° Southwest  Level Estimated
06:13PM 52.3581 -50.4874 244° Southwest  Level Estimated
06:14PM 52.3040 -50.6649 244° Southwest  Level Estimated
06:15PM 52.2495 -50.8420 243° Southwest  Level Estimated
06:16PM 52.1948 -51.0186 243° Southwest  Level Estimated
06:17PM 52.1399 -51.1948 243° Southwest  Level Estimated
06:18PM 52.0846 -51.3705 243° Southwest  Level Estimated
06:19PM 52.0291 -51.5458 243° Southwest  Level Estimated
06:20PM 51.9734 -51.7207 243° Southwest  Level Estimated
06:21PM 51.9174 -51.8951 243° Southwest  Level Estimated
06:22PM 51.8611 -52.0691 242° Southwest  Level Estimated
06:23PM 51.8046 -52.2427 242° Southwest  Level Estimated
06:24PM 51.7478 -52.4158 242° Southwest  Level Estimated
06:25PM 51.6908 -52.5885 242° Southwest  Level Estimated
06:26PM 51.6335 -52.7608 242° Southwest  Level Estimated
06:27PM 51.5760 -52.9326 242° Southwest  Level Estimated
06:28PM 51.5182 -53.1040 242° Southwest  Level Estimated
06:29PM 51.4602 -53.2749 241° Southwest  Level Estimated
06:30PM 51.4019 -53.4454 241° Southwest  Level Estimated
06:31PM 51.3434 -53.6155 241° Southwest  Level Estimated
06:32PM 51.2846 -53.7852 241° Southwest  Level Estimated
06:33PM 51.2256 -53.9544 241° Southwest  Level Estimated
06:34PM 51.1663 -54.1232 241° Southwest  Level Estimated
06:35PM 51.1068 -54.2915 241° Southwest  Level Estimated
06:36PM 51.0471 -54.4594 241° Southwest  Level Estimated
06:37PM 50.9871 -54.6269 240° Southwest  Level Estimated
06:38PM 50.9269 -54.7939 240° Southwest  Level Estimated
06:39PM 50.8664 -54.9605 240° Southwest  Level Estimated
06:40PM 50.8057 -55.1267 240° Southwest  Level Estimated
06:41PM 50.7448 -55.2925 240° Southwest  Level Estimated
06:42PM 50.6836 -55.4578 240° Southwest  Level Estimated
06:43PM 50.6222 -55.6227 240° Southwest  Level Estimated
06:44PM 50.5606 -55.7871 240° Southwest  Level Estimated
06:45PM 50.4987 -55.9511 239° Southwest  Level Estimated
06:46PM 50.4366 -56.1147 239° Southwest  Level Estimated
06:47PM 50.3743 -56.2779 239° Southwest  Level Estimated
06:48PM 50.3118 -56.4406 239° Southwest  Level Estimated
06:49PM 50.2490 -56.6029 239° Southwest  Level Estimated
06:50PM 50.1860 -56.7648 239° Southwest  Level Estimated
06:51PM 50.1228 -56.9263 239° Southwest  Level Estimated
06:52PM 50.0593 -57.0873 239° Southwest  Level Estimated
06:53PM 49.9957 -57.2479 238° Southwest  Level Estimated
06:54PM 49.9318 -57.4081 238° Southwest  Level Estimated
06:55PM 49.8676 -57.5678 238° Southwest  Level Estimated
06:56PM 49.8033 -57.7271 238° Southwest  Level Estimated
06:57PM 49.7388 -57.8860 238° Southwest  Level Estimated
06:58PM 49.6740 -58.0445 238° Southwest  Level Estimated
06:59PM 49.6090 -58.2026 238° Southwest  Level Estimated
07:00PM 49.5438 -58.3602 238° Southwest  Level Estimated
07:01PM 49.4784 -58.5174 237° Southwest  Level Estimated
07:02PM 49.4128 -58.6742 237° Southwest  Level Estimated
07:03PM 49.3470 -58.8306 237° Southwest  Level Estimated
07:04PM 49.2809 -58.9865 237° Southwest  Level Estimated
07:05PM 49.2147 -59.1421 237° Southwest  Level Estimated
07:06PM 49.1482 -59.2972 237° Southwest  Level Estimated
07:07PM 49.0816 -59.4519 237° Southwest  Level Estimated
07:08PM 49.0147 -59.6062 237° Southwest  Level Estimated
07:09PM 48.9476 -59.7600 236° Southwest  Level Estimated
07:10PM 48.8803 -59.9135 236° Southwest  Level Estimated
07:11PM 48.8128 -60.0666 236° Southwest  Level Estimated
07:12PM 48.7452 -60.2192 236° Southwest  Level Estimated
07:13PM 48.6773 -60.3714 236° Southwest  Level Estimated
07:14PM 48.6092 -60.5232 236° Southwest  Level Estimated
07:15PM 48.5409 -60.6746 236° Southwest  Level Estimated
07:16PM 48.4724 -60.8256 236° Southwest  Level Estimated
07:17PM 48.4037 -60.9762 236° Southwest  Level Estimated
07:18PM 48.3348 -61.1264 235° Southwest  Level Estimated
07:19PM 48.2658 -61.2762 235° Southwest  Level Estimated
07:20PM 48.1965 -61.4255 235° Southwest  Level Estimated
07:21PM 48.1270 -61.5745 235° Southwest  Level Estimated
07:22PM 48.0574 -61.7231 235° Southwest  Level Estimated
07:23PM 47.9875 -61.8712 235° Southwest  Level Estimated
07:24PM 47.9175 -62.0190 235° Southwest  Level Estimated
07:25PM 47.8473 -62.1664 235° Southwest  Level Estimated
07:26PM 47.7769 -62.3133 235° Southwest  Level Estimated
07:27PM 47.7063 -62.4599 234° Southwest  Level Estimated
07:28PM 47.6355 -62.6060 234° Southwest  Level Estimated
07:29PM 47.5645 -62.7518 234° Southwest  Level Estimated
07:30PM 47.4934 -62.8972 234° Southwest  Level Estimated
07:31PM 47.4220 -63.0422 234° Southwest  Level Estimated
07:32PM 47.3505 -63.1868 234° Southwest  Level Estimated
07:33PM 47.2788 -63.3310 234° Southwest  Level Estimated
07:34PM 47.2069 -63.4748 234° Southwest  Level Estimated
07:35PM 47.1349 -63.6182 234° Southwest  Level Estimated
07:36PM 47.0626 -63.7612 233° Southwest  Level Estimated
07:37PM 46.9902 -63.9039 233° Southwest  Level Estimated
07:38PM 46.9176 -64.0461 233° Southwest  Level Estimated
07:39PM 46.8449 -64.1880 233° Southwest  Level Estimated
07:40PM 46.7719 -64.3295 233° Southwest  Level Estimated
07:41PM 46.6988 -64.4706 233° Southwest  Level Estimated
07:42PM 46.6255 -64.6113 233° Southwest  Level Estimated
07:43PM 46.5521 -64.7516 233° Southwest  Level Estimated
07:44PM 46.4784 -64.8916 233° Southwest  Level Estimated
07:45PM 46.4046 -65.0312 233° Southwest  Level Estimated
07:46PM 46.3307 -65.1704 232° Southwest  Level Estimated
07:47PM 46.2565 -65.3092 232° Southwest  Level Estimated
07:48PM 46.1822 -65.4476 232° Southwest  Level Estimated
07:49PM 46.1077 -65.5857 232° Southwest  Level Estimated
07:50PM 46.0331 -65.7234 232° Southwest  Level Estimated
07:51PM 45.9583 -65.8607 232° Southwest  Level Estimated
07:52PM 45.8833 -65.9977 232° Southwest  Level Estimated
07:53PM 45.8082 -66.1343 232° Southwest  Level Estimated
07:54PM 45.7329 -66.2705 232° Southwest  Level Estimated
07:55PM 45.6574 -66.4064 232° Southwest  Level Estimated
07:56PM 45.5818 -66.5419 231° Southwest  Level Estimated
07:57PM 45.5060 -66.6770 231° Southwest  Level Estimated
07:58PM 45.4301 -66.8117 231° Southwest  Level Estimated
07:59PM 45.3540 -66.9461 231° Southwest  Level Estimated
08:00PM 45.2777 -67.0802 231° Southwest  Level Estimated
08:01PM 45.2013 -67.2139 231° Southwest  Level Estimated
08:02PM 45.1247 -67.3472 231° Southwest  Level Estimated
08:03PM 45.0480 -67.4801 231° Southwest  Level Estimated
08:04PM 44.9712 -67.6127 231° Southwest  Level Estimated
08:05PM 44.8941 -67.7450 231° Southwest  Level Estimated
08:06PM 44.8170 -67.8769 231° Southwest  Level Estimated
08:07PM 44.7396 -68.0084 230° Southwest  Level Estimated
08:08PM 44.6621 -68.1396 230° Southwest  Level Estimated
08:09PM 44.5845 -68.2704 230° Southwest  Level Estimated
08:10PM 44.5067 -68.4009 230° Southwest  Level Estimated
08:11PM 44.4288 -68.5311 230° Southwest  Level Estimated
08:12PM 44.3507 -68.6609 230° Southwest  Level Estimated
08:13PM 44.2725 -68.7903 230° Southwest  Level Estimated
08:14PM 44.1941 -68.9194 230° Southwest  Level Estimated
08:15PM 44.1156 -69.0482 230° Southwest  Level Estimated
08:16PM 44.0370 -69.1766 230° Southwest  Level Estimated
08:17PM 43.9582 -69.3047 230° Southwest  Level Estimated
08:18PM 43.8792 -69.4324 229° Southwest  Level Estimated
08:19PM 43.8002 -69.5598 229° Southwest  Level Estimated
08:20PM 43.7209 -69.6869 229° Southwest  Level Estimated
08:21PM 43.6416 -69.8136 229° Southwest  Level Estimated
08:22PM 43.5621 -69.9400 229° Southwest  Level Estimated
08:23PM 43.4824 -70.0661 229° Southwest  Level Estimated
08:24PM 43.4026 -70.1918 229° Southwest  Level Estimated
08:25PM 43.3227 -70.3172 229° Southwest  Level Estimated
08:26PM 43.2427 -70.4423 229° Southwest  Level Estimated
08:27PM 43.1625 -70.5670 229° Southwest  Level Estimated
08:28PM 43.0821 -70.6914 229° Southwest  Level Estimated
08:29PM 43.0017 -70.8155 228° Southwest  Level Estimated
08:30PM 42.9211 -70.9392 228° Southwest  Level Estimated
08:31PM 42.8404 -71.0627 228° Southwest  Level Estimated
08:32PM 42.7595 -71.1858 228° Southwest  Level Estimated
08:33PM 42.6785 -71.3086 228° Southwest  Level Estimated
08:34PM 42.5974 -71.4311 228° Southwest  Level Estimated
08:35PM 42.5161 -71.5532 228° Southwest  Level Estimated
08:36PM 42.4347 -71.6750 228° Southwest  Level Estimated
08:37PM 42.3532 -71.7966 228° Southwest  Level Estimated
08:38PM 42.2716 -71.9178 228° Southwest  Level Estimated
08:39PM 42.1898 -72.0387 228° Southwest  Level Estimated
08:40PM 42.1079 -72.1592 228° Southwest  Level Estimated
08:41PM 42.0259 -72.2795 227° Southwest  Level Estimated
08:42PM 41.9438 -72.3995 227° Southwest  Level Estimated
08:43PM 41.8615 -72.5191 227° Southwest  Level Estimated
08:44PM 41.7791 -72.6385 227° Southwest  Level Estimated
08:45PM 41.6966 -72.7575 227° Southwest  Level Estimated
08:46PM 41.6140 -72.8762 227° Southwest  Level Estimated
08:47PM 41.5312 -72.9946 227° Southwest  Level Estimated
08:48PM 41.4483 -73.1128 227° Southwest  Level Estimated
08:49PM 41.3653 -73.2306 227° Southwest  Level Estimated
08:50PM 41.2822 -73.3481 227° Southwest  Level Estimated
08:51PM 41.1990 -73.4653 227° Southwest  Level Estimated
08:52PM 41.1156 -73.5822 227° Southwest  Level Estimated
08:53PM 41.0321 -73.6989 227° Southwest  Level Estimated
08:54PM 40.9485 -73.8152 226° Southwest  Level Estimated
08:55PM 40.8648 -73.9312 226° Southwest  Level Estimated
08:56PM 40.7810 -74.0470 226° Southwest  Level Estimated
08:57PM 40.6970 -74.1624 226° Southwest  Level Estimated
08:58PM 40.6925 -74.1687 226° Southwest  Level Estimated
08:59PM 40.6925 -74.1687 90° East  Level Estimated
09:00PM 40.6925 -74.1687 90° East  Level Estimated
09:01PM 40.6925 -74.1687 90° East  Level Estimated
09:02PM 40.6925 -74.1687 90° East  Level Estimated
09:03PM 40.6925 -74.1687 90° East  Level Estimated
09:04PM 40.6925 -74.1687 90° East  Level Estimated
09:05PM 40.6925 -74.1687 90° East  Level Estimated
09:06PM 40.6925 -74.1687 90° East  Level Estimated
09:07PM 40.6925 -74.1687 90° East  Level Estimated
09:08PM 40.6925 -74.1687 90° East  Level Estimated
09:09PM 40.6925 -74.1687 90° East  Level Estimated
09:10PM 40.6925 -74.1687 90° East  Level Estimated
09:11PM 40.6925 -74.1687 90° East  Level Estimated
09:12PM 40.6925 -74.1687 90° East  Level Estimated
09:13PM 40.6925 -74.1687 90° East  Level Estimated